createdAt,value
2018-04-26T00:02:03.579Z,59.1
2018-04-26T00:07:03.515Z,59.2
2018-04-26T00:12:03.365Z,59.1
2018-04-26T00:17:03.988Z,59.0
2018-04-26T00:22:03.327Z,59.1
2018-04-26T00:27:03.857Z,59.1
2018-04-26T00:32:03.661Z,59.1
2018-04-26T00:37:03.536Z,59.2
2018-04-26T00:42:02.952Z,59.1
2018-04-26T00:47:03.954Z,59.1
2018-04-26T00:52:03.271Z,59.1
2018-04-26T00:57:03.013Z,59.2
2018-04-26T01:02:03.885Z,59.1
2018-04-26T01:07:03.356Z,59.2
2018-04-26T01:12:03.342Z,59.1
2018-04-26T01:17:03.341Z,59.1
2018-04-26T01:22:03.994Z,59.0
2018-04-26T01:27:03.723Z,59.1
2018-04-26T01:32:03.218Z,59.1
2018-04-26T01:37:03.754Z,59.1
2018-04-26T01:42:03.290Z,58.9
2018-04-26T01:47:03.737Z,59.0
2018-04-26T01:52:03.123Z,58.8
2018-04-26T01:57:03.705Z,58.9
2018-04-26T02:02:03.369Z,58.9
2018-04-26T02:07:03.861Z,58.8
2018-04-26T02:12:03.621Z,58.9
2018-04-26T02:17:03.322Z,58.8
2018-04-26T02:22:03.735Z,58.8
2018-04-26T02:27:03.198Z,58.7
2018-04-26T02:32:03.717Z,58.9
2018-04-26T02:37:03.945Z,58.8
2018-04-26T02:42:03.007Z,58.8
2018-04-26T02:47:03.232Z,58.8
2018-04-26T02:52:03.398Z,58.7
2018-04-26T02:57:03.419Z,58.9
2018-04-26T03:02:03.652Z,58.7
2018-04-26T03:07:03.860Z,58.7
2018-04-26T03:12:03.071Z,58.7
2018-04-26T03:17:03.462Z,58.7
2018-04-26T03:22:03.469Z,58.7
2018-04-26T03:27:03.530Z,58.7
2018-04-26T03:32:03.685Z,58.6
2018-04-26T03:37:03.773Z,58.7
2018-04-26T03:42:03.835Z,58.6
2018-04-26T03:47:07.295Z,58.6
2018-04-26T03:52:03.412Z,58.6
2018-04-26T03:57:03.559Z,58.6
2018-04-26T04:02:23.046Z,58.6
2018-04-26T04:07:03.160Z,58.6
2018-04-26T04:12:03.742Z,58.6
2018-04-26T04:17:18.996Z,58.6
2018-04-26T04:22:03.663Z,58.8
2018-04-26T04:27:03.890Z,59.1
2018-04-26T04:32:24.125Z,59.1
2018-04-26T04:37:03.251Z,58.9
2018-04-26T04:42:03.344Z,58.9
2018-04-26T04:47:21.493Z,58.9
2018-04-26T04:52:03.689Z,58.8
2018-04-26T04:57:03.800Z,58.6
2018-04-26T05:02:24.505Z,58.6
2018-04-26T05:07:03.155Z,58.3
2018-04-26T05:12:03.399Z,58.0
2018-04-26T05:17:22.451Z,58.0
2018-04-26T05:22:03.787Z,57.9
2018-04-26T05:27:03.905Z,57.9
2018-04-26T05:32:21.716Z,57.8
2018-04-26T05:37:03.214Z,57.9
2018-04-26T05:42:03.394Z,57.9
2018-04-26T05:47:21.699Z,57.6
2018-04-26T05:52:03.905Z,57.6
2018-04-26T05:57:03.034Z,57.6
2018-04-26T06:02:17.683Z,57.7
2018-04-26T06:07:03.170Z,57.6
2018-04-26T06:12:03.406Z,57.6
2018-04-26T06:17:25.444Z,57.2
2018-04-26T06:22:02.996Z,57.0
2018-04-26T06:27:03.171Z,57.4
2018-04-26T06:32:20.602Z,57.7
2018-04-26T06:37:03.604Z,57.9
2018-04-26T06:42:03.766Z,58.1
2018-04-26T06:47:23.460Z,58.1
2018-04-26T06:52:03.178Z,58.1
2018-04-26T06:57:03.051Z,58.1
2018-04-26T07:02:19.816Z,58.2
2018-04-26T07:07:04.126Z,58.0
2018-04-26T07:12:03.979Z,58.1
2018-04-26T07:17:04.657Z,58.1
2018-04-26T07:22:03.683Z,58.1
2018-04-26T07:27:03.798Z,57.9
2018-04-26T07:32:04.060Z,57.9
2018-04-26T07:37:03.076Z,57.8
2018-04-26T07:42:03.274Z,57.7
2018-04-26T07:47:20.128Z,57.4
2018-04-26T07:52:03.587Z,57.4
2018-04-26T07:57:03.787Z,57.4
2018-04-26T08:02:19.253Z,57.1
2018-04-26T08:07:03.340Z,57.0
2018-04-26T08:12:03.627Z,57.0
2018-04-26T08:17:27.323Z,56.9
2018-04-26T08:22:03.007Z,56.4
2018-04-26T08:27:03.240Z,56.6
2018-04-26T08:32:20.539Z,56.6
2018-04-26T08:37:03.622Z,56.4
2018-04-26T08:42:03.765Z,56.2
2018-04-26T08:47:20.975Z,56.0
2018-04-26T08:52:03.149Z,56.1
2018-04-26T08:57:03.715Z,56.0
2018-04-26T09:02:20.468Z,56.4
2018-04-26T09:07:03.305Z,57.0
2018-04-26T09:12:03.562Z,56.7
2018-04-26T09:17:24.108Z,56.7
2018-04-26T09:22:03.106Z,56.7
2018-04-26T09:27:03.349Z,56.3
2018-04-26T09:32:21.635Z,56.2
2018-04-26T09:37:03.729Z,56.2
2018-04-26T09:42:03.895Z,56.8
2018-04-26T09:47:22.597Z,56.3
2018-04-26T09:52:03.292Z,56.3
2018-04-26T09:57:03.574Z,56.4
2018-04-26T10:02:21.274Z,56.2
2018-04-26T10:07:03.122Z,56.2
2018-04-26T10:12:03.417Z,55.6
2018-04-26T10:17:26.849Z,55.9
2018-04-26T10:22:03.877Z,56.1
2018-04-26T10:27:03.035Z,56.6
2018-04-26T10:32:22.977Z,55.8
2018-04-26T10:37:03.601Z,55.8
2018-04-26T10:42:03.754Z,55.8
2018-04-26T10:47:21.088Z,55.5
2018-04-26T10:52:03.629Z,55.6
2018-04-26T10:57:03.802Z,55.6
2018-04-26T11:02:22.526Z,55.0
2018-04-26T11:07:03.477Z,55.2
2018-04-26T11:12:03.745Z,56.0
2018-04-26T11:17:20.932Z,55.6
2018-04-26T11:22:03.099Z,55.5
2018-04-26T11:27:03.338Z,56.8
2018-04-26T11:32:23.680Z,56.8
2018-04-26T11:37:03.754Z,56.4
2018-04-26T11:42:03.484Z,56.4
2018-04-26T11:47:26.313Z,56.0
2018-04-26T11:52:03.129Z,55.7
2018-04-26T11:57:03.308Z,55.6
2018-04-26T12:02:33.417Z,55.4
2018-04-26T12:07:03.740Z,54.7
2018-04-26T12:12:03.061Z,54.7
2018-04-26T12:17:24.310Z,54.7
2018-04-26T12:22:03.066Z,55.1
2018-04-26T12:27:03.282Z,53.4
2018-04-26T12:32:19.705Z,53.4
2018-04-26T12:37:03.560Z,53.1
2018-04-26T12:42:03.901Z,53.1
2018-04-26T12:47:19.639Z,53.9
2018-04-26T12:52:03.115Z,53.5
2018-04-26T12:57:03.278Z,52.5
2018-04-26T13:02:21.494Z,53.3
2018-04-26T13:07:03.657Z,53.2
2018-04-26T13:12:03.870Z,53.0
2018-04-26T13:17:20.162Z,53.0
2018-04-26T13:22:03.295Z,53.8
2018-04-26T13:27:03.588Z,53.8
2018-04-26T13:32:23.559Z,52.1
2018-04-26T13:37:03.043Z,52.1
2018-04-26T13:42:03.206Z,54.3
2018-04-26T13:47:23.015Z,54.2
2018-04-26T13:52:03.532Z,53.7
2018-04-26T13:57:03.569Z,53.7
2018-04-26T14:02:24.149Z,53.2
2018-04-26T14:07:03.804Z,53.2
2018-04-26T14:12:03.126Z,53.4
2018-04-26T14:17:18.399Z,53.6
2018-04-26T14:22:03.953Z,53.7
2018-04-26T14:27:03.064Z,53.8
2018-04-26T14:32:20.653Z,53.3
2018-04-26T14:37:03.690Z,53.4
2018-04-26T14:42:03.729Z,53.4
2018-04-26T14:47:22.863Z,53.6
2018-04-26T14:52:03.412Z,51.0
2018-04-26T14:57:03.723Z,44.4
2018-04-26T15:02:21.034Z,43.8
2018-04-26T15:07:03.836Z,49.6
2018-04-26T15:12:03.160Z,49.3
2018-04-26T15:17:22.215Z,47.2
2018-04-26T15:22:03.667Z,42.0
2018-04-26T15:27:03.748Z,40.2
2018-04-26T15:32:23.493Z,44.4
2018-04-26T15:37:02.995Z,44.3
2018-04-26T15:42:03.122Z,41.8
2018-04-26T15:47:21.901Z,42.4
2018-04-26T15:52:03.475Z,44.5
2018-04-26T15:57:03.625Z,44.4
2018-04-26T16:02:21.438Z,47.9
2018-04-26T16:07:03.195Z,45.1
2018-04-26T16:12:03.446Z,45.1
2018-04-26T16:17:24.045Z,43.6
2018-04-26T16:22:02.957Z,44.8
2018-04-26T16:27:03.117Z,44.8
2018-04-26T16:32:21.140Z,50.6
2018-04-26T16:37:03.648Z,50.6
2018-04-26T16:42:03.707Z,50.0
2018-04-26T16:47:23.446Z,50.0
2018-04-26T16:52:03.611Z,50.0
2018-04-26T16:57:03.731Z,50.6
2018-04-26T17:02:03.361Z,52.1
2018-04-26T17:07:04.133Z,52.2
2018-04-26T17:12:03.145Z,52.2
2018-04-26T17:17:14.738Z,52.2
2018-04-26T17:22:03.675Z,52.8
2018-04-26T17:27:03.994Z,52.9
2018-04-26T17:32:06.718Z,53.0
2018-04-26T17:37:03.394Z,51.3
2018-04-26T17:42:03.383Z,45.4
2018-04-26T17:47:03.992Z,47.3
2018-04-26T17:52:03.798Z,47.2
2018-04-26T17:57:03.898Z,50.1
2018-04-26T18:02:18.819Z,52.9
2018-04-26T18:07:03.201Z,52.6
2018-04-26T18:12:03.368Z,53.2
2018-04-26T18:17:19.447Z,54.0
2018-04-26T18:22:03.769Z,54.2
2018-04-26T18:27:04.050Z,54.6
2018-04-26T18:32:09.778Z,55.0
2018-04-26T18:37:03.489Z,55.2
2018-04-26T18:42:03.082Z,55.2
2018-04-26T18:47:04.272Z,55.4
2018-04-26T18:52:03.484Z,55.4
2018-04-26T18:57:03.770Z,55.5
2018-04-26T19:02:06.120Z,55.4
2018-04-26T19:07:03.336Z,55.5
2018-04-26T19:12:03.653Z,55.5
2018-04-26T19:17:08.572Z,55.6
2018-04-26T19:22:03.165Z,55.5
2018-04-26T19:27:03.360Z,55.6
2018-04-26T19:32:03.469Z,55.7
2018-04-26T19:37:03.612Z,55.8
2018-04-26T19:42:03.677Z,55.9
2018-04-26T19:47:03.855Z,55.8
2018-04-26T19:52:02.998Z,55.8
2018-04-26T19:57:03.227Z,55.6
2018-04-26T20:02:04.099Z,55.4
2018-04-26T20:07:03.593Z,55.3
2018-04-26T20:12:03.791Z,55.2
2018-04-26T20:17:04.029Z,55.4
2018-04-26T20:22:03.023Z,55.5
2018-04-26T20:27:03.299Z,55.3
2018-04-26T20:32:08.458Z,55.3
2018-04-26T20:37:03.403Z,55.3
2018-04-26T20:42:03.473Z,55.3
2018-04-26T20:47:03.862Z,55.1
2018-04-26T20:52:03.657Z,55.0
2018-04-26T20:57:03.731Z,55.0
2018-04-26T21:02:03.950Z,54.7
2018-04-26T21:07:03.342Z,55.0
2018-04-26T21:12:03.526Z,55.1
2018-04-26T21:17:03.718Z,55.1
2018-04-26T21:22:03.686Z,54.9
2018-04-26T21:27:03.764Z,54.9
2018-04-26T21:32:03.928Z,55.0
2018-04-26T21:37:03.068Z,55.0
2018-04-26T21:42:03.101Z,54.9
2018-04-26T21:47:03.293Z,55.0
2018-04-26T21:52:03.521Z,55.0
2018-04-26T21:57:03.542Z,55.0
2018-04-26T22:02:03.768Z,55.0
2018-04-26T22:07:03.502Z,54.9
2018-04-26T22:12:03.450Z,54.9
2018-04-26T22:22:03.824Z,54.9
2018-04-26T22:27:03.546Z,54.8
2018-04-26T22:32:03.622Z,54.9
2018-04-26T22:37:03.740Z,54.7
2018-04-26T22:42:03.368Z,54.8
2018-04-26T22:47:03.523Z,54.8
2018-04-26T22:52:03.318Z,54.7
2018-04-26T22:57:03.887Z,54.8
2018-04-26T23:02:02.961Z,54.6
2018-04-26T23:07:03.436Z,54.6
2018-04-26T23:12:03.501Z,54.6
2018-04-26T23:17:03.405Z,54.6
2018-04-26T23:22:03.221Z,54.4
2018-04-26T23:27:03.947Z,54.4
2018-04-26T23:32:03.622Z,54.4
2018-04-26T23:37:03.426Z,54.4
2018-04-26T23:42:03.401Z,54.3
2018-04-26T23:47:03.223Z,54.2
2018-04-26T23:52:03.264Z,54.2
2018-04-26T23:57:03.788Z,54.3
